Home > Products > Valid Products > TAF

000
FTUS43 KMKX 230908 AAA
TAFMKE
TAF AMD
KMKE 230908Z 2309/2412 15003KT P6SM FEW250
     FM231500 18008KT P6SM SCT050 BKN100
     FM231900 18010KT P6SM VCSH SCT035 BKN060
      TEMPO 2319/2321 -SHRA BKN035
     FM232200 20007KT 6SM -SHRA SCT025 OVC030
     FM240000 21006KT P6SM OVC025
     FM240600 25005KT 5SM BR SCT008 SCT025=



000
FTUS43 KMKX 230520
TAFMKE
TAF
KMKE 230520Z 2306/2412 15003KT P6SM FEW250
     FM231500 18008KT P6SM SCT050 BKN100
     FM231900 18010KT P6SM VCSH SCT035 BKN060
      TEMPO 2319/2321 -SHRA BKN035
     FM232200 20007KT 6SM -SHRA SCT025 OVC030
     FM240000 21006KT P6SM OVC025
     FM240600 25005KT 5SM BR SCT008 SCT025=



000
FTUS43 KMKX 230520
TAFMSN
TAF
KMSN 230520Z 2306/2406 15006KT P6SM BKN250
      TEMPO 2310/2312 SCT050 BKN080
     FM231200 18007KT P6SM SCT050 BKN080
     FM231400 18008KT P6SM VCSH BKN050
      TEMPO 2314/2317 -SHRA BKN035
     FM231700 19009KT P6SM -SHRA SCT025 OVC035
     FM232000 20008KT P6SM OVC030
     FM240100 21005KT 5SM BR OVC012=



000
FTUS43 KMKX 230253 AAA
TAFMKE
TAF AMD
KMKE 230253Z 2303/2406 14005KT P6SM FEW250
     FM230900 16004KT P6SM FEW250
     FM231500 18008KT P6SM FEW100 SCT250
     FM232000 18010KT P6SM VCSH SCT040 BKN080
      TEMPO 2320/2322 -SHRA BKN040
     FM232200 20007KT 6SM -SHRA SCT025 OVC035
     FM240000 21006KT P6SM OVC025
     FM240400 25005KT P6SM BKN040=



000
FTUS43 KMKX 222332
TAFMSN
TAF
KMSN 222332Z 2300/2324 15005KT P6SM FEW250
     FM231200 18007KT P6SM SCT060 BKN100
     FM231400 18008KT P6SM VCSH BKN050
      TEMPO 2314/2317 -SHRA BKN035
     FM231700 19009KT P6SM -SHRA SCT025 OVC035
     FM232000 20008KT P6SM OVC030
     FM232300 21005KT P6SM OVC015=



000
FTUS43 KMKX 222332
TAFMKE
TAF
KMKE 222332Z 2300/2406 14005KT P6SM SKC
     FM230900 19004KT P6SM FEW250
     FM231500 18008KT P6SM FEW100 SCT250
     FM232000 18010KT P6SM VCSH SCT040 BKN080
      TEMPO 2320/2322 -SHRA BKN040
     FM232200 20007KT 6SM -SHRA SCT025 OVC035
     FM240000 21006KT P6SM OVC025
     FM240400 25005KT P6SM BKN040=



000
FTUS43 KMKX 222034 AAB
TAFMKE
TAF AMD
KMKE 222034Z 2221/2324 12009KT P6SM SKC
     FM230000 13005KT P6SM SKC
     FM231500 19008KT P6SM SCT250
     FM232100 20008KT 4SM -SHRA BR OVC030=



000
FTUS43 KMKX 222034 AAB
TAFMKE
TAF AMD
KMKE 222034Z 2221/2324 12009KT P6SM SKC
     FM230000 13005KT P6SM SKC
     FM231500 19008KT P6SM SCT250
     FM232100 20008KT 4SM -SHRA BR OVC030=



000
FTUS43 KMKX 222033 AAB
TAFMSN
TAF AMD
KMSN 222033Z 2221/2318 18009KT P6SM SKC
     FM230000 15005KT P6SM SKC
     FM231300 18008KT P6SM BKN100
     FM231600 18008KT 5SM -SHRA BR OVC030=



000
FTUS43 KMKX 222033 AAB
TAFMSN
TAF AMD
KMSN 222033Z 2221/2318 18009KT P6SM SKC
     FM230000 15005KT P6SM SKC
     FM231300 18008KT P6SM BKN100
     FM231600 18008KT 5SM -SHRA BR OVC030=



000
FTUS43 KMKX 221921 AAA
TAFMSN
TAF AMD
KMSN 221921Z 2219/2318 18007KT P6SM SKC
     FM230000 15005KT P6SM SKC
     FM231300 18008KT P6SM BKN100
     FM231600 18008KT 5SM -SHRA BR OVC030=



000
FTUS43 KMKX 221920 AAA
TAFMKE
TAF AMD
KMKE 221920Z 2219/2324 12011KT P6SM SCT025
     FM230000 13005KT P6SM SKC
     FM231500 19008KT P6SM SCT250
     FM232100 20008KT 4SM -SHRA BR OVC030=



000
FTUS43 KMKX 221737
TAFMSN
TAF
KMSN 221737Z 2218/2318 17007KT P6SM SKC
     FM230000 15005KT P6SM SKC
     FM231300 18008KT P6SM BKN100
     FM231600 18008KT 5SM -SHRA BR OVC030=



000
FTUS43 KMKX 221737
TAFMKE
TAF
KMKE 221737Z 2218/2324 11007KT P6SM BKN025
     FM222100 13007KT P6SM SCT025
     FM230000 13005KT P6SM SKC
     FM231500 19008KT P6SM SCT250
     FM232100 20008KT 4SM -SHRA BR OVC030=



000
FTUS43 KMKX 221737
TAFMSN
TAF
KMSN 221737Z 2218/2318 17007KT P6SM SKC
     FM230000 15005KT P6SM SKC
     FM231300 18008KT P6SM BKN100
     FM231600 18008KT 5SM -SHRA BR OVC030=



000
FTUS43 KMKX 221737
TAFMKE
TAF
KMKE 221737Z 2218/2324 11007KT P6SM BKN025
     FM222100 13007KT P6SM SCT025
     FM230000 13005KT P6SM SKC
     FM231500 19008KT P6SM SCT250
     FM232100 20008KT 4SM -SHRA BR OVC030=



000
FTUS43 KMKX 221433 AAB
TAFMSN
TAF AMD
KMSN 221433Z 2215/2312 VRB03KT 6SM BR SCT020
     FM221800 15009KT P6SM SKC
     FM230000 15004KT P6SM FEW250=



000
FTUS43 KMKX 221431 AAA
TAFMKE
TAF AMD
KMKE 221431Z 2215/2318 VRB03KT P6SM BKN020
      TEMPO 2215/2218 SCT020
     FM221800 14005KT P6SM FEW020
     FM230100 15004KT P6SM FEW250
     FM231500 20009KT P6SM BKN060=



000
FTUS43 KMKX 221315 AAA
TAFMSN
TAF AMD
KMSN 221315Z 2213/2312 VRB03KT P6SM SCT020
     FM221900 15009KT P6SM SKC
     FM230000 15004KT P6SM FEW250=



000
FTUS43 KMKX 221122
TAFMKE
TAF
KMKE 221122Z 2212/2318 30004KT P6SM SCT025
     FM221500 13007KT P6SM FEW030
     FM230100 15004KT P6SM FEW250
     FM231500 20009KT P6SM BKN060=



000
FTUS43 KMKX 221122
TAFMSN
TAF
KMSN 221122Z 2212/2312 VRB03KT 3SM BR BKN018
      TEMPO 2212/2213 1SM BR SCT002 SCT018
     FM221300 13005KT P6SM SKC
     FM221900 15009KT P6SM SKC
     FM230000 15004KT P6SM FEW250=



000
FTUS43 KMKX 221100 AAB
TAFMSN
TAF AMD
KMSN 221100Z 2211/2306 VRB03KT 3SM BR SCT002 SCT018
      TEMPO 2211/2213 3/4SM BR BKN018
     FM221300 VRB03KT P6SM SKC
     FM221900 16007KT P6SM FEW250=



000
FTUS43 KMKX 221100 AAB
TAFMSN
TAF AMD
KMSN 221100Z 2211/2306 VRB03KT 3SM BR SCT002 SCT018
      TEMPO 2211/2213 3/4SM BR BKN018
     FM221300 VRB03KT P6SM SKC
     FM221900 16007KT P6SM FEW250=



000
FTUS43 KMKX 221022 AAA
TAFMSN
TAF AMD
KMSN 221022Z 2210/2306 VRB03KT 3SM BR SCT002
      TEMPO 2210/2213 3/4SM BR VV002
     FM221300 VRB03KT P6SM SKC
     FM221900 16007KT P6SM FEW250=



000
FTUS43 KMKX 220851 AAA
TAFMKE
TAF AMD
KMKE 220851Z 2209/2312 31005KT P6SM SKC
     FM221600 13006KT P6SM FEW030
     FM230100 14005KT P6SM FEW250=



000
FTUS43 KMKX 220520
TAFMSN
TAF
KMSN 220520Z 2206/2306 VRB03KT 5SM BR SKC
     FM220900 00000KT 3SM BR SKC
     FM221300 VRB03KT P6SM SKC
     FM221900 16007KT P6SM FEW250=



000
FTUS43 KMKX 220520
TAFMKE
TAF
KMKE 220520Z 2206/2312 05006KT P6SM SKC
     FM221600 13006KT P6SM FEW030
     FM230100 14005KT P6SM FEW250=



000
FTUS43 KMKX 220520
TAFMSN
TAF
KMSN 220520Z 2206/2306 VRB03KT 5SM BR SKC
     FM220900 00000KT 3SM BR SKC
     FM221300 VRB03KT P6SM SKC
     FM221900 16007KT P6SM FEW250=



000
FTUS43 KMKX 220520
TAFMKE
TAF
KMKE 220520Z 2206/2312 05006KT P6SM SKC
     FM221600 13006KT P6SM FEW030
     FM230100 14005KT P6SM FEW250=



000
FTUS43 KMKX 220300 AAA
TAFMKE
TAF AMD
KMKE 220300Z 2203/2306 03008KT P6SM SKC
     FM220700 06005KT P6SM SKC
     FM221500 12004KT P6SM FEW250
     FM230300 00000KT P6SM SKC=



000
FTUS43 KMKX 212322
TAFMKE
TAF
KMKE 212322Z 2200/2306 02007KT P6SM FEW030
     FM220700 06005KT P6SM SKC
     FM221500 12004KT P6SM FEW250
     FM230300 00000KT P6SM SKC=



000
FTUS43 KMKX 212322
TAFMSN
TAF
KMSN 212322Z 2200/2224 05005KT P6SM FEW025
     FM220100 07004KT P6SM SKC
     FM220800 00000KT P6SM SKC
     FM221700 15006KT P6SM FEW250=



000
FTUS43 KMKX 212158 AAC
TAFMSN
TAF AMD
KMSN 212158Z 2122/2218 05007KT P6SM BKN025
     FM212300 06006KT P6SM SCT025
     FM220000 06005KT P6SM SKC
     FM220600 00000KT P6SM SKC
     FM221600 16006KT P6SM SKC=



000
FTUS43 KMKX 212158 AAC
TAFMSN
TAF AMD
KMSN 212158Z 2122/2218 05007KT P6SM BKN025
     FM212300 06006KT P6SM SCT025
     FM220000 06005KT P6SM SKC
     FM220600 00000KT P6SM SKC
     FM221600 16006KT P6SM SKC=



000
FTUS43 KMKX 212138 AAC
TAFMKE
TAF AMD
KMKE 212138Z 2122/2224 03010KT P6SM SCT025
     FM220100 03009KT P6SM SKC
     FM221400 12004KT P6SM SKC=



000
FTUS43 KMKX 212138 AAC
TAFMKE
TAF AMD
KMKE 212138Z 2122/2224 03010KT P6SM SCT025
     FM220100 03009KT P6SM SKC
     FM221400 12004KT P6SM SKC=



000
FTUS43 KMKX 212041 AAB
TAFMKE
TAF AMD
KMKE 212041Z 2121/2224 01010G15KT P6SM OVC025
     FM212200 01010KT P6SM SCT025
     FM220100 03009KT P6SM SKC
     FM221400 12004KT P6SM SKC=



000
FTUS43 KMKX 212040 AAB
TAFMSN
TAF AMD
KMSN 212040Z 2121/2218 05007KT P6SM OVC025
     FM212200 06006KT P6SM SCT025
     FM220000 06005KT P6SM SKC
     FM220600 00000KT P6SM SKC
     FM221600 16006KT P6SM SKC=



000
FTUS43 KMKX 212002 AAA
TAFMKE
TAF AMD
KMKE 212002Z 2120/2224 01010G15KT P6SM OVC025
     FM212200 01010KT P6SM SCT025
     FM220100 03009KT P6SM SKC
     FM221400 12004KT P6SM SKC=



000
FTUS43 KMKX 212001 AAA
TAFMSN
TAF AMD
KMSN 212001Z 2120/2218 05007KT P6SM OVC025
     FM212200 06006KT P6SM SCT025
     FM220000 06005KT P6SM SKC
     FM220600 00000KT P6SM SKC
     FM221600 16006KT P6SM SKC=



000
FTUS43 KMKX 212001 AAA
TAFMSN
TAF AMD
KMSN 212001Z 2120/2218 05007KT P6SM OVC025
     FM212200 06006KT P6SM SCT025
     FM220000 06005KT P6SM SKC
     FM220600 00000KT P6SM SKC
     FM221600 16006KT P6SM SKC=



000
FTUS43 KMKX 211733
TAFMKE
TAF
KMKE 211733Z 2118/2224 36011G15KT P6SM OVC025
     FM212000 01010KT P6SM BKN035
     FM212200 01010KT P6SM SCT035
     FM220100 03009KT P6SM SKC
     FM221400 12004KT P6SM SKC=



000
FTUS43 KMKX 211733
TAFMSN
TAF
KMSN 211733Z 2118/2218 04010KT P6SM OVC025
     FM212000 05007KT P6SM SCT025
     FM212200 06006KT P6SM FEW025
     FM220600 00000KT P6SM SKC
     FM221600 16006KT P6SM SKC=



000
FTUS43 KMKX 211641 AAD
TAFMSN
TAF AMD
KMSN 211641Z 2117/2212 04010KT P6SM OVC025
     FM211800 04010KT P6SM BKN035
     FM212100 05008KT P6SM SCT035
     FM220200 08004KT P6SM FEW250=



000
FTUS43 KMKX 211639 AAB
TAFMKE
TAF AMD
KMKE 211639Z 2117/2218 36010G15KT P6SM OVC025
     FM211800 02011G15KT P6SM BKN035
     FM220200 03008KT P6SM SCT150
     FM220700 06004KT P6SM SCT250
     FM221200 09005KT P6SM SCT050=



000
FTUS43 KMKX 211435 AAA
TAFMKE
TAF AMD
KMKE 211435Z 2115/2218 35010KT P6SM OVC020
     FM211800 02012KT P6SM BKN025
     FM220200 03008KT P6SM SCT150
     FM220700 06004KT P6SM SCT250
     FM221200 09005KT P6SM SCT050=



000
FTUS43 KMKX 211435 AAA
TAFMKE
TAF AMD
KMKE 211435Z 2115/2218 35010KT P6SM OVC020
     FM211800 02012KT P6SM BKN025
     FM220200 03008KT P6SM SCT150
     FM220700 06004KT P6SM SCT250
     FM221200 09005KT P6SM SCT050=



000
FTUS43 KMKX 211434 AAC
TAFMSN
TAF AMD
KMSN 211434Z 2115/2212 01007KT P6SM BKN020
     FM211800 04008KT P6SM SCT035
     FM212000 05008KT P6SM FEW250
     FM220200 08004KT P6SM FEW250=



000
FTUS43 KMKX 211434 AAC
TAFMSN
TAF AMD
KMSN 211434Z 2115/2212 01007KT P6SM BKN020
     FM211800 04008KT P6SM SCT035
     FM212000 05008KT P6SM FEW250
     FM220200 08004KT P6SM FEW250=



000
FTUS43 KMKX 211324 AAB
TAFMSN
TAF AMD
KMSN 211324Z 2113/2212 01007KT P6SM BKN020
     FM211800 04008KT P6SM SCT035
     FM212000 05008KT P6SM FEW250
     FM220200 08004KT P6SM FEW250=



000
FTUS43 KMKX 211324 AAB
TAFMSN
TAF AMD
KMSN 211324Z 2113/2212 01007KT P6SM BKN020
     FM211800 04008KT P6SM SCT035
     FM212000 05008KT P6SM FEW250
     FM220200 08004KT P6SM FEW250=



000
FTUS43 KMKX 211317 AAA
TAFMSN
TAF AMD
KMSN 211317Z 2113/2212 01007KT P6SM SCT020
     FM211400 01008KT P6SM BKN025
     FM211800 04008KT P6SM SCT035
     FM212000 05008KT P6SM FEW250
     FM220200 08004KT P6SM FEW250=



000
FTUS43 KMKX 211317 AAA
TAFMSN
TAF AMD
KMSN 211317Z 2113/2212 01007KT P6SM SCT020
     FM211400 01008KT P6SM BKN025
     FM211800 04008KT P6SM SCT035
     FM212000 05008KT P6SM FEW250
     FM220200 08004KT P6SM FEW250=



000
FTUS43 KMKX 211120
TAFMSN
TAF
KMSN 211120Z 2112/2212 01008KT P6SM SCT025
     FM211300 02008KT P6SM BKN025
     FM211800 04008KT P6SM SCT035
     FM212000 05008KT P6SM FEW250
     FM220200 08004KT P6SM FEW250=



000
FTUS43 KMKX 211120
TAFMSN
TAF
KMSN 211120Z 2112/2212 01008KT P6SM SCT025
     FM211300 02008KT P6SM BKN025
     FM211800 04008KT P6SM SCT035
     FM212000 05008KT P6SM FEW250
     FM220200 08004KT P6SM FEW250=



000
FTUS43 KMKX 211120
TAFMKE
TAF
KMKE 211120Z 2112/2218 35009KT P6SM OVC022
     FM211800 02012KT P6SM BKN025
     FM212200 02012KT P6SM SCT250
     FM220200 03008KT P6SM SCT150
     FM220700 06004KT P6SM SCT250
     FM221200 09005KT P6SM SCT050=



000
FTUS43 KMKX 211120
TAFMKE
TAF
KMKE 211120Z 2112/2218 35009KT P6SM OVC022
     FM211800 02012KT P6SM BKN025
     FM212200 02012KT P6SM SCT250
     FM220200 03008KT P6SM SCT150
     FM220700 06004KT P6SM SCT250
     FM221200 09005KT P6SM SCT050=



000
FTUS43 KMKX 211120
TAFMKE
TAF
KMKE 211120Z 2112/2218 35009KT P6SM OVC022
     FM211800 02012KT P6SM BKN025
     FM212200 02012KT P6SM SCT250
     FM220200 03008KT P6SM SCT150
     FM220700 06004KT P6SM SCT250
     FM221200 09005KT P6SM SCT050=



000
FTUS43 KMKX 211120
TAFMSN
TAF
KMSN 211120Z 2112/2212 01008KT P6SM SCT025
     FM211300 02008KT P6SM BKN025
     FM211800 04008KT P6SM SCT035
     FM212000 05008KT P6SM FEW250
     FM220200 08004KT P6SM FEW250=



000
FTUS43 KMKX 211120
TAFMKE
TAF
KMKE 211120Z 2112/2218 35009KT P6SM OVC022
     FM211800 02012KT P6SM BKN025
     FM212200 02012KT P6SM SCT250
     FM220200 03008KT P6SM SCT150
     FM220700 06004KT P6SM SCT250
     FM221200 09005KT P6SM SCT050=



000
FTUS43 KMKX 211120
TAFMSN
TAF
KMSN 211120Z 2112/2212 01008KT P6SM SCT025
     FM211300 02008KT P6SM BKN025
     FM211800 04008KT P6SM SCT035
     FM212000 05008KT P6SM FEW250
     FM220200 08004KT P6SM FEW250=



000
FTUS43 KMKX 210913 AAA
TAFMKE
TAF AMD
KMKE 210913Z 2109/2212 34007KT P6SM BKN050
     FM211300 01011KT P6SM SCT018 BKN030
     FM212100 01013KT P6SM SCT030
     FM220100 03009KT P6SM SCT200
     FM220700 05005KT P6SM SCT130=



000
FTUS43 KMKX 210520
TAFMSN
TAF
KMSN 210520Z 2106/2206 36004KT P6SM SCT030 BKN040
     FM211700 03008KT P6SM SCT035
     FM211900 03008KT P6SM SCT250
     FM220300 07004KT P6SM FEW250=



000
FTUS43 KMKX 210520
TAFMSN
TAF
KMSN 210520Z 2106/2206 36004KT P6SM SCT030 BKN040
     FM211700 03008KT P6SM SCT035
     FM211900 03008KT P6SM SCT250
     FM220300 07004KT P6SM FEW250=



000
FTUS43 KMKX 210520
TAFMKE
TAF
KMKE 210520Z 2106/2212 35008KT P6SM SCT030 OVC045
     FM210900 35012KT P6SM SCT030 OVC040
     FM211500 01011KT P6SM SCT018 BKN030
     FM212100 01013KT P6SM SCT030
     FM220100 03009KT P6SM SCT200
     FM220700 05005KT P6SM SCT130=



000
FTUS43 KMKX 210520
TAFMKE
TAF
KMKE 210520Z 2106/2212 35008KT P6SM SCT030 OVC045
     FM210900 35012KT P6SM SCT030 OVC040
     FM211500 01011KT P6SM SCT018 BKN030
     FM212100 01013KT P6SM SCT030
     FM220100 03009KT P6SM SCT200
     FM220700 05005KT P6SM SCT130=



000
FTUS43 KMKX 210358 AAA
TAFMSN
TAF AMD
KMSN 210358Z 2104/2124 35005KT P6SM BKN045
     FM211400 36004KT P6SM SCT060
     FM211600 03008KT P6SM SCT200=



000
FTUS43 KMKX 210358 AAA
TAFMSN
TAF AMD
KMSN 210358Z 2104/2124 35005KT P6SM BKN045
     FM211400 36004KT P6SM SCT060
     FM211600 03008KT P6SM SCT200=



000
FTUS43 KMKX 210358 AAA
TAFMSN
TAF AMD
KMSN 210358Z 2104/2124 35005KT P6SM BKN045
     FM211400 36004KT P6SM SCT060
     FM211600 03008KT P6SM SCT200=



000
FTUS43 KMKX 210358 AAA
TAFMSN
TAF AMD
KMSN 210358Z 2104/2124 35005KT P6SM BKN045
     FM211400 36004KT P6SM SCT060
     FM211600 03008KT P6SM SCT200=



000
FTUS43 KMKX 210246 AAA
TAFMKE
TAF AMD
KMKE 210246Z 2103/2206 34008KT P6SM SCT030 OVC050
     FM210900 35012KT P6SM BKN035
     FM211600 36013KT P6SM BKN030
     FM211900 01013KT P6SM BKN090
     FM220100 03009KT P6SM SCT150
     FM220500 05007KT P6SM SCT050=



000
FTUS43 KMKX 210246 AAA
TAFMKE
TAF AMD
KMKE 210246Z 2103/2206 34008KT P6SM SCT030 OVC050
     FM210900 35012KT P6SM BKN035
     FM211600 36013KT P6SM BKN030
     FM211900 01013KT P6SM BKN090
     FM220100 03009KT P6SM SCT150
     FM220500 05007KT P6SM SCT050=



000
FTUS43 KMKX 210246 AAA
TAFMKE
TAF AMD
KMKE 210246Z 2103/2206 34008KT P6SM SCT030 OVC050
     FM210900 35012KT P6SM BKN035
     FM211600 36013KT P6SM BKN030
     FM211900 01013KT P6SM BKN090
     FM220100 03009KT P6SM SCT150
     FM220500 05007KT P6SM SCT050=



000
FTUS43 KMKX 202325
TAFMSN
TAF
KMSN 202325Z 2100/2124 35005KT P6SM BKN045
     FM210500 36004KT P6SM SCT060
     FM211600 03008KT P6SM SCT200=



000
FTUS43 KMKX 202325
TAFMKE
TAF
KMKE 202325Z 2100/2206 33008KT P6SM OVC040
     FM210300 35008KT P6SM BKN045
     FM210900 35012KT P6SM BKN035
     FM211600 36013KT P6SM BKN030
     FM211900 01013KT P6SM BKN090
     FM220100 03009KT P6SM SCT150
     FM220500 05007KT P6SM SCT050=



000
FTUS43 KMKX 202325
TAFMKE
TAF
KMKE 202325Z 2100/2206 33008KT P6SM OVC040
     FM210300 35008KT P6SM BKN045
     FM210900 35012KT P6SM BKN035
     FM211600 36013KT P6SM BKN030
     FM211900 01013KT P6SM BKN090
     FM220100 03009KT P6SM SCT150
     FM220500 05007KT P6SM SCT050=



000
FTUS43 KMKX 202325
TAFMSN
TAF
KMSN 202325Z 2100/2124 35005KT P6SM BKN045
     FM210500 36004KT P6SM SCT060
     FM211600 03008KT P6SM SCT200=



000
FTUS43 KMKX 202040 AAA
TAFMKE
TAF AMD
KMKE 202040Z 2021/2124 34010G17KT P6SM BKN035
     FM210000 35008G16KT P6SM BKN035
     FM210600 35012KT P6SM BKN035
     FM211400 01012G18KT P6SM BKN030
     FM211800 01013KT P6SM BKN035=



000
FTUS43 KMKX 202040 AAA
TAFMSN
TAF AMD
KMSN 202040Z 2021/2118 34010G18KT P6SM BKN040
     FM202300 35005KT P6SM BKN040
     FM210500 36004KT P6SM FEW040
     FM211500 02008KT P6SM SCT030=



000
FTUS43 KMKX 202040 AAA
TAFMKE
TAF AMD
KMKE 202040Z 2021/2124 34010G17KT P6SM BKN035
     FM210000 35008G16KT P6SM BKN035
     FM210600 35012KT P6SM BKN035
     FM211400 01012G18KT P6SM BKN030
     FM211800 01013KT P6SM BKN035=



000
FTUS43 KMKX 202040 AAA
TAFMSN
TAF AMD
KMSN 202040Z 2021/2118 34010G18KT P6SM BKN040
     FM202300 35005KT P6SM BKN040
     FM210500 36004KT P6SM FEW040
     FM211500 02008KT P6SM SCT030=



000
FTUS43 KMKX 201726
TAFMSN
TAF
KMSN 201726Z 2018/2118 34010G18KT P6SM BKN040
     FM202300 35005KT P6SM BKN040
     FM210500 36004KT P6SM FEW040
     FM211500 02008KT P6SM SCT030=



000
FTUS43 KMKX 201726
TAFMKE
TAF
KMKE 201726Z 2018/2124 34010G17KT P6SM BKN040
     FM210000 35008G16KT P6SM BKN035
     FM210600 35012KT P6SM BKN035
     FM211400 01012G18KT P6SM BKN030
     FM211800 01013KT P6SM BKN035=



000
FTUS43 KMKX 201726
TAFMSN
TAF
KMSN 201726Z 2018/2118 34010G18KT P6SM BKN040
     FM202300 35005KT P6SM BKN040
     FM210500 36004KT P6SM FEW040
     FM211500 02008KT P6SM SCT030=



000
FTUS43 KMKX 201726
TAFMKE
TAF
KMKE 201726Z 2018/2124 34010G17KT P6SM BKN040
     FM210000 35008G16KT P6SM BKN035
     FM210600 35012KT P6SM BKN035
     FM211400 01012G18KT P6SM BKN030
     FM211800 01013KT P6SM BKN035=



000
FTUS43 KMKX 201518 AAA
TAFMSN
TAF AMD
KMSN 201518Z 2015/2112 34011KT P6SM SCT050
     FM201600 33011G18KT P6SM SCT035 BKN050
     FM202300 35007KT P6SM BKN040
     FM210600 36005KT P6SM SCT050=



000
FTUS43 KMKX 201518 AAA
TAFMKE
TAF AMD
KMKE 201518Z 2015/2118 30009KT P6SM SCT070
     FM201600 34010G20KT P6SM BKN045
     FM210200 35008KT P6SM OVC035
     FM210900 35009KT P6SM BKN050
     FM211300 01010KT P6SM SCT050 BKN250=



000
FTUS43 KMKX 201518 AAA
TAFMKE
TAF AMD
KMKE 201518Z 2015/2118 30009KT P6SM SCT070
     FM201600 34010G20KT P6SM BKN045
     FM210200 35008KT P6SM OVC035
     FM210900 35009KT P6SM BKN050
     FM211300 01010KT P6SM SCT050 BKN250=



000
FTUS43 KMKX 201518 AAA
TAFMSN
TAF AMD
KMSN 201518Z 2015/2112 34011KT P6SM SCT050
     FM201600 33011G18KT P6SM SCT035 BKN050
     FM202300 35007KT P6SM BKN040
     FM210600 36005KT P6SM SCT050=



000
FTUS43 KMKX 201136
TAFMSN
TAF
KMSN 201136Z 2012/2112 31005KT P6SM SCT070
     FM201500 33009KT P6SM SCT050
     FM201600 33011G18KT P6SM SCT035 BKN050
     FM202300 35007KT P6SM BKN040
     FM210600 36005KT P6SM SCT050=



000
FTUS43 KMKX 201136
TAFMKE
TAF
KMKE 201136Z 2012/2118 28007KT P6SM SCT070
     FM201600 34010G20KT P6SM BKN045
     FM210200 35008KT P6SM OVC035
     FM210900 35009KT P6SM BKN050
     FM211300 01010KT P6SM SCT050 BKN250=



000
FTUS43 KMKX 201136
TAFMKE
TAF
KMKE 201136Z 2012/2118 28007KT P6SM SCT070
     FM201600 34010G20KT P6SM BKN045
     FM210200 35008KT P6SM OVC035
     FM210900 35009KT P6SM BKN050
     FM211300 01010KT P6SM SCT050 BKN250=



000
FTUS43 KMKX 201136
TAFMSN
TAF
KMSN 201136Z 2012/2112 31005KT P6SM SCT070
     FM201500 33009KT P6SM SCT050
     FM201600 33011G18KT P6SM SCT035 BKN050
     FM202300 35007KT P6SM BKN040
     FM210600 36005KT P6SM SCT050=



    US Dept of Commerce
    National Oceanic and Atmospheric Administration
    National Weather Service
    1325 East West Highway
    Silver Spring, MD 20910
    Page Author: NWS Internet Services Team
Disclaimer
Information Quality
Credits
Glossary
Privacy Policy
Freedom of Information Act (FOIA)
About Us
Career Opportunities